sensor_id;sensor_type;location;lat;lon;timestamp;noise_LAeq;noise_LA_min;noise_LA_max;noise_LA01;noise_LA95
50333;Laerm;36239;48.132;-1.210;2023-01-16T00:00:24;50.40;42.47;72.29;;
50333;Laerm;36239;48.132;-1.210;2023-01-16T00:02:50;63.16;41.38;93.94;;
50333;Laerm;36239;48.132;-1.210;2023-01-16T00:05:17;66.83;42.76;92.71;;
50333;Laerm;36239;48.132;-1.210;2023-01-16T00:07:43;75.61;41.46;100.02;;
50333;Laerm;36239;48.132;-1.210;2023-01-16T00:10:09;77.86;43.86;107.88;;
50333;Laerm;36239;48.132;-1.210;2023-01-16T00:12:35;72.67;41.46;99.27;;
50333;Laerm;36239;48.132;-1.210;2023-01-16T00:15:01;82.11;43.94;112.58;;
50333;Laerm;36239;48.132;-1.210;2023-01-16T00:17:27;74.12;42.16;99.83;;
50333;Laerm;36239;48.132;-1.210;2023-01-16T00:19:53;69.52;40.03;94.88;;
50333;Laerm;36239;48.132;-1.210;2023-01-16T00:22:19;64.36;39.08;92.80;;
50333;Laerm;36239;48.132;-1.210;2023-01-16T00:24:45;63.82;39.08;91.09;;
50333;Laerm;36239;48.132;-1.210;2023-01-16T00:27:11;70.42;38.67;98.36;;
50333;Laerm;36239;48.132;-1.210;2023-01-16T00:29:37;66.10;36.91;87.86;;
50333;Laerm;36239;48.132;-1.210;2023-01-16T00:32:03;59.18;37.32;85.76;;
50333;Laerm;36239;48.132;-1.210;2023-01-16T00:34:29;60.61;36.69;83.94;;
50333;Laerm;36239;48.132;-1.210;2023-01-16T00:36:55;68.35;36.91;94.45;;
50333;Laerm;36239;48.132;-1.210;2023-01-16T00:39:21;54.31;35.04;81.76;;
50333;Laerm;36239;48.132;-1.210;2023-01-16T00:41:47;72.27;36.69;103.78;;
50333;Laerm;36239;48.132;-1.210;2023-01-16T00:44:13;54.71;36.20;86.82;;
50333;Laerm;36239;48.132;-1.210;2023-01-16T00:46:39;49.31;35.36;77.02;;
50333;Laerm;36239;48.132;-1.210;2023-01-16T00:49:05;43.68;35.66;67.18;;
50333;Laerm;36239;48.132;-1.210;2023-01-16T00:51:31;66.35;36.77;93.04;;
50333;Laerm;36239;48.132;-1.210;2023-01-16T00:53:57;46.32;36.45;76.23;;
50333;Laerm;36239;48.132;-1.210;2023-01-16T00:56:23;58.73;36.69;89.46;;
50333;Laerm;36239;48.132;-1.210;2023-01-16T00:58:49;71.51;36.69;98.86;;
50333;Laerm;36239;48.132;-1.210;2023-01-16T01:01:15;48.67;37.12;71.37;;
50333;Laerm;36239;48.132;-1.210;2023-01-16T01:03:42;67.69;37.52;98.02;;
50333;Laerm;36239;48.132;-1.210;2023-01-16T01:06:08;49.80;36.91;77.76;;
50333;Laerm;36239;48.132;-1.210;2023-01-16T01:08:35;62.82;35.94;94.60;;
50333;Laerm;36239;48.132;-1.210;2023-01-16T01:11:08;42.64;36.10;67.38;;
50333;Laerm;36239;48.132;-1.210;2023-01-16T01:13:34;55.77;36.20;83.98;;
50333;Laerm;36239;48.132;-1.210;2023-01-16T01:16:00;50.79;35.94;78.38;;
50333;Laerm;36239;48.132;-1.210;2023-01-16T01:18:26;51.34;36.45;78.38;;
50333;Laerm;36239;48.132;-1.210;2023-01-16T01:20:52;40.83;36.20;58.19;;
50333;Laerm;36239;48.132;-1.210;2023-01-16T01:23:17;43.87;35.94;69.73;;
50333;Laerm;36239;48.132;-1.210;2023-01-16T01:25:43;63.51;35.66;90.97;;
50333;Laerm;36239;48.132;-1.210;2023-01-16T01:28:09;56.87;36.45;85.72;;
50333;Laerm;36239;48.132;-1.210;2023-01-16T01:30:36;43.12;36.45;72.66;;
50333;Laerm;36239;48.132;-1.210;2023-01-16T01:33:02;46.65;36.45;74.52;;
50333;Laerm;36239;48.132;-1.210;2023-01-16T01:35:28;50.86;36.91;81.23;;
50333;Laerm;36239;48.132;-1.210;2023-01-16T01:37:54;60.56;36.91;90.26;;
50333;Laerm;36239;48.132;-1.210;2023-01-16T01:40:20;57.69;35.94;85.03;;
50333;Laerm;36239;48.132;-1.210;2023-01-16T01:42:46;53.56;36.91;80.56;;
50333;Laerm;36239;48.132;-1.210;2023-01-16T01:45:24;50.39;37.52;75.60;;
50333;Laerm;36239;48.132;-1.210;2023-01-16T01:47:54;53.62;36.20;81.36;;
50333;Laerm;36239;48.132;-1.210;2023-01-16T01:50:27;58.60;36.69;84.89;;
50333;Laerm;36239;48.132;-1.210;2023-01-16T01:52:55;48.02;37.32;73.15;;
50333;Laerm;36239;48.132;-1.210;2023-01-16T01:55:24;51.80;37.88;83.47;;
50333;Laerm;36239;48.132;-1.210;2023-01-16T01:57:52;55.57;36.69;81.44;;
50333;Laerm;36239;48.132;-1.210;2023-01-16T02:00:21;54.24;36.20;78.23;;
50333;Laerm;36239;48.132;-1.210;2023-01-16T02:03:05;46.19;37.52;71.13;;
50333;Laerm;36239;48.132;-1.210;2023-01-16T02:05:36;49.50;38.37;73.45;;
50333;Laerm;36239;48.132;-1.210;2023-01-16T02:08:04;51.09;38.21;78.04;;
50333;Laerm;36239;48.132;-1.210;2023-01-16T02:10:41;53.92;37.52;81.18;;
50333;Laerm;36239;48.132;-1.210;2023-01-16T02:13:09;45.27;37.88;71.83;;
50333;Laerm;36239;48.132;-1.210;2023-01-16T02:15:36;59.57;37.88;89.48;;
50333;Laerm;36239;48.132;-1.210;2023-01-16T02:18:23;55.95;38.21;83.78;;
50333;Laerm;36239;48.132;-1.210;2023-01-16T02:21:12;58.84;39.34;88.44;;
50333;Laerm;36239;48.132;-1.210;2023-01-16T02:24:29;62.86;40.03;93.30;;
50333;Laerm;36239;48.132;-1.210;2023-01-16T02:31:49;57.10;37.88;89.96;;
50333;Laerm;36239;48.132;-1.210;2023-01-16T02:39:53;61.22;39.92;86.95;;
50333;Laerm;36239;48.132;-1.210;2023-01-16T02:45:01;71.33;39.58;96.40;;
50333;Laerm;36239;48.132;-1.210;2023-01-16T02:47:43;71.19;41.22;98.18;;
50333;Laerm;36239;48.132;-1.210;2023-01-16T02:52:44;79.52;41.82;105.66;;
50333;Laerm;36239;48.132;-1.210;2023-01-16T02:57:47;63.24;41.75;91.51;;
50333;Laerm;36239;48.132;-1.210;2023-01-16T03:00:15;79.42;40.98;105.39;;
50333;Laerm;36239;48.132;-1.210;2023-01-16T03:02:43;65.66;42.35;95.11;;
50333;Laerm;36239;48.132;-1.210;2023-01-16T03:05:09;73.80;41.96;103.40;;
50333;Laerm;36239;48.132;-1.210;2023-01-16T03:13:11;61.32;39.08;90.49;;
50333;Laerm;36239;48.132;-1.210;2023-01-16T03:15:44;64.99;39.70;92.78;;
50333;Laerm;36239;48.132;-1.210;2023-01-16T03:24:03;59.12;37.88;85.84;;
50333;Laerm;36239;48.132;-1.210;2023-01-16T03:26:48;57.26;35.36;85.96;;
50333;Laerm;36239;48.132;-1.210;2023-01-16T03:29:39;61.34;37.88;89.14;;
50333;Laerm;36239;48.132;-1.210;2023-01-16T03:34:50;53.82;38.67;84.82;;
50333;Laerm;36239;48.132;-1.210;2023-01-16T03:37:22;58.53;39.21;89.02;;
50333;Laerm;36239;48.132;-1.210;2023-01-16T03:39:51;70.42;38.95;97.01;;
50333;Laerm;36239;48.132;-1.210;2023-01-16T03:42:41;68.07;38.95;96.36;;
50333;Laerm;36239;48.132;-1.210;2023-01-16T03:45:06;62.58;38.95;88.49;;
50333;Laerm;36239;48.132;-1.210;2023-01-16T03:47:36;64.17;37.52;93.16;;
50333;Laerm;36239;48.132;-1.210;2023-01-16T03:50:05;70.99;39.34;97.98;;
50333;Laerm;36239;48.132;-1.210;2023-01-16T03:52:38;62.86;38.21;89.65;;
50333;Laerm;36239;48.132;-1.210;2023-01-16T03:57:36;68.17;38.21;101.03;;
50333;Laerm;36239;48.132;-1.210;2023-01-16T04:00:04;64.35;40.43;91.91;;
50333;Laerm;36239;48.132;-1.210;2023-01-16T04:02:39;59.92;41.82;86.48;;
50333;Laerm;36239;48.132;-1.210;2023-01-16T04:10:30;69.74;42.85;97.38;;
50333;Laerm;36239;48.132;-1.210;2023-01-16T04:13:02;65.46;42.98;88.28;;
50333;Laerm;36239;48.132;-1.210;2023-01-16T04:15:29;71.58;40.71;104.10;;
50333;Laerm;36239;48.132;-1.210;2023-01-16T04:17:56;64.44;40.62;97.12;;
50333;Laerm;36239;48.132;-1.210;2023-01-16T04:20:23;64.44;40.53;88.85;;
50333;Laerm;36239;48.132;-1.210;2023-01-16T04:22:50;66.14;38.67;94.71;;
50333;Laerm;36239;48.132;-1.210;2023-01-16T04:25:17;71.12;39.92;97.53;;
50333;Laerm;36239;48.132;-1.210;2023-01-16T04:27:43;73.07;41.82;99.23;;
50333;Laerm;36239;48.132;-1.210;2023-01-16T04:30:09;74.28;40.88;96.10;;
50333;Laerm;36239;48.132;-1.210;2023-01-16T04:32:35;67.03;41.89;91.16;;
50333;Laerm;36239;48.132;-1.210;2023-01-16T04:35:02;67.37;40.80;93.49;;
50333;Laerm;36239;48.132;-1.210;2023-01-16T04:37:28;73.05;41.82;104.61;;
50333;Laerm;36239;48.132;-1.210;2023-01-16T04:39:54;73.99;41.14;100.39;;
50333;Laerm;36239;48.132;-1.210;2023-01-16T04:42:20;69.60;41.46;98.53;;
50333;Laerm;36239;48.132;-1.210;2023-01-16T04:44:46;62.86;41.82;88.73;;
50333;Laerm;36239;48.132;-1.210;2023-01-16T04:47:12;77.63;42.09;105.35;;
50333;Laerm;36239;48.132;-1.210;2023-01-16T04:49:38;69.13;41.61;92.53;;
50333;Laerm;36239;48.132;-1.210;2023-01-16T04:52:04;73.15;40.62;102.76;;
50333;Laerm;36239;48.132;-1.210;2023-01-16T04:54:30;74.09;42.93;104.33;;
50333;Laerm;36239;48.132;-1.210;2023-01-16T04:56:56;70.42;42.41;97.41;;
50333;Laerm;36239;48.132;-1.210;2023-01-16T04:59:22;74.10;43.72;99.34;;
50333;Laerm;36239;48.132;-1.210;2023-01-16T05:01:48;75.16;42.82;105.04;;
50333;Laerm;36239;48.132;-1.210;2023-01-16T05:04:14;70.41;42.22;95.88;;
50333;Laerm;36239;48.132;-1.210;2023-01-16T05:06:41;75.02;45.51;101.49;;
50333;Laerm;36239;48.132;-1.210;2023-01-16T05:09:07;74.69;44.65;99.94;;
50333;Laerm;36239;48.132;-1.210;2023-01-16T05:11:33;81.47;43.94;105.79;;
50333;Laerm;36239;48.132;-1.210;2023-01-16T05:14:00;67.25;44.58;92.00;;
50333;Laerm;36239;48.132;-1.210;2023-01-16T05:16:26;73.07;45.66;100.29;;
50333;Laerm;36239;48.132;-1.210;2023-01-16T05:18:53;76.43;43.80;102.10;;
50333;Laerm;36239;48.132;-1.210;2023-01-16T05:21:19;66.42;40.98;93.17;;
50333;Laerm;36239;48.132;-1.210;2023-01-16T05:23:45;65.61;41.22;92.71;;
50333;Laerm;36239;48.132;-1.210;2023-01-16T05:26:11;66.86;40.43;95.03;;
50333;Laerm;36239;48.132;-1.210;2023-01-16T05:28:37;73.19;40.71;101.28;;
50333;Laerm;36239;48.132;-1.210;2023-01-16T05:31:03;65.10;40.98;95.96;;
50333;Laerm;36239;48.132;-1.210;2023-01-16T05:33:29;59.98;40.43;89.51;;
50333;Laerm;36239;48.132;-1.210;2023-01-16T05:35:55;66.09;41.61;91.51;;
50333;Laerm;36239;48.132;-1.210;2023-01-16T05:38:22;65.20;41.68;93.36;;
50333;Laerm;36239;48.132;-1.210;2023-01-16T05:40:48;71.60;42.16;104.27;;
50333;Laerm;36239;48.132;-1.210;2023-01-16T05:43:14;75.07;43.19;98.91;;
50333;Laerm;36239;48.132;-1.210;2023-01-16T05:45:40;76.75;43.58;101.55;;
50333;Laerm;36239;48.132;-1.210;2023-01-16T05:48:06;77.86;43.49;104.72;;
50333;Laerm;36239;48.132;-1.210;2023-01-16T05:50:32;77.33;44.07;101.59;;
50333;Laerm;36239;48.132;-1.210;2023-01-16T05:52:58;78.06;44.03;102.72;;
50333;Laerm;36239;48.132;-1.210;2023-01-16T05:55:24;76.93;44.90;103.67;;
50333;Laerm;36239;48.132;-1.210;2023-01-16T05:57:50;76.72;44.58;101.92;;
50333;Laerm;36239;48.132;-1.210;2023-01-16T06:00:17;78.64;44.80;104.06;;
50333;Laerm;36239;48.132;-1.210;2023-01-16T06:02:43;77.00;44.35;102.94;;
50333;Laerm;36239;48.132;-1.210;2023-01-16T06:05:10;66.04;43.44;96.01;;
50333;Laerm;36239;48.132;-1.210;2023-01-16T06:07:36;63.22;41.89;90.30;;
50333;Laerm;36239;48.132;-1.210;2023-01-16T06:10:03;75.60;42.16;101.94;;
50333;Laerm;36239;48.132;-1.210;2023-01-16T06:12:29;68.93;43.49;96.29;;
50333;Laerm;36239;48.132;-1.210;2023-01-16T06:14:57;56.56;43.63;81.14;;
50333;Laerm;36239;48.132;-1.210;2023-01-16T06:17:23;50.00;43.77;74.29;;
50333;Laerm;36239;48.132;-1.210;2023-01-16T06:19:49;62.26;44.51;89.05;;
50333;Laerm;36239;48.132;-1.210;2023-01-16T06:22:15;69.13;45.33;94.98;;
50333;Laerm;36239;48.132;-1.210;2023-01-16T06:24:41;78.67;44.73;101.90;;
50333;Laerm;36239;48.132;-1.210;2023-01-16T06:27:07;73.59;44.31;97.52;;
50333;Laerm;36239;48.132;-1.210;2023-01-16T06:29:33;70.16;43.34;97.14;;
50333;Laerm;36239;48.132;-1.210;2023-01-16T06:31:59;65.34;43.90;92.95;;
50333;Laerm;36239;48.132;-1.210;2023-01-16T06:34:25;80.83;45.30;104.72;;
50333;Laerm;36239;48.132;-1.210;2023-01-16T06:36:51;66.67;48.63;86.51;;
50333;Laerm;36239;48.132;-1.210;2023-01-16T06:39:17;76.33;44.31;104.22;;
50333;Laerm;36239;48.132;-1.210;2023-01-16T06:41:43;71.77;44.31;96.92;;
50333;Laerm;36239;48.132;-1.210;2023-01-16T06:44:09;77.78;43.94;106.13;;
50333;Laerm;36239;48.132;-1.210;2023-01-16T06:46:35;73.05;44.43;97.63;;
50333;Laerm;36239;48.132;-1.210;2023-01-16T06:49:01;70.20;44.76;101.21;;
50333;Laerm;36239;48.132;-1.210;2023-01-16T06:51:27;78.49;44.97;103.04;;
50333;Laerm;36239;48.132;-1.210;2023-01-16T06:53:53;72.64;45.14;101.37;;
50333;Laerm;36239;48.132;-1.210;2023-01-16T06:56:19;72.83;44.90;99.34;;
50333;Laerm;36239;48.132;-1.210;2023-01-16T06:58:46;79.07;45.30;103.98;;
50333;Laerm;36239;48.132;-1.210;2023-01-16T07:01:12;70.91;44.23;94.53;;
50333;Laerm;36239;48.132;-1.210;2023-01-16T07:03:38;76.93;44.87;102.95;;
50333;Laerm;36239;48.132;-1.210;2023-01-16T07:06:04;68.60;44.19;97.78;;
50333;Laerm;36239;48.132;-1.210;2023-01-16T07:08:30;69.57;44.47;95.63;;
50333;Laerm;36239;48.132;-1.210;2023-01-16T07:10:59;76.25;44.51;99.55;;
50333;Laerm;36239;48.132;-1.210;2023-01-16T07:13:26;76.98;44.62;101.56;;
50333;Laerm;36239;48.132;-1.210;2023-01-16T07:15:54;74.46;44.69;103.67;;
50333;Laerm;36239;48.132;-1.210;2023-01-16T07:18:39;77.38;45.39;101.88;;
50333;Laerm;36239;48.132;-1.210;2023-01-16T07:21:38;70.43;44.19;99.34;;
50333;Laerm;36239;48.132;-1.210;2023-01-16T07:24:25;69.25;44.11;94.29;;
50333;Laerm;36239;48.132;-1.210;2023-01-16T07:26:56;78.61;44.39;106.49;;
50333;Laerm;36239;48.132;-1.210;2023-01-16T07:29:24;73.81;45.48;101.24;;
50333;Laerm;36239;48.132;-1.210;2023-01-16T07:31:50;75.75;46.10;100.97;;
50333;Laerm;36239;48.132;-1.210;2023-01-16T07:34:16;75.32;44.69;100.22;;
50333;Laerm;36239;48.132;-1.210;2023-01-16T07:36:42;72.36;46.69;97.78;;
50333;Laerm;36239;48.132;-1.210;2023-01-16T07:39:08;74.74;46.89;98.66;;
50333;Laerm;36239;48.132;-1.210;2023-01-16T07:41:34;76.76;46.23;104.22;;
50333;Laerm;36239;48.132;-1.210;2023-01-16T07:44:00;70.57;46.23;95.32;;
50333;Laerm;36239;48.132;-1.210;2023-01-16T07:46:26;67.37;44.54;99.72;;
50333;Laerm;36239;48.132;-1.210;2023-01-16T07:48:52;63.18;44.62;88.66;;
50333;Laerm;36239;48.132;-1.210;2023-01-16T07:51:20;71.10;44.51;101.18;;
50333;Laerm;36239;48.132;-1.210;2023-01-16T07:53:46;65.84;43.68;90.65;;
50333;Laerm;36239;48.132;-1.210;2023-01-16T07:56:13;64.66;43.81;89.31;;
50333;Laerm;36239;48.132;-1.210;2023-01-16T07:58:39;63.09;42.41;91.21;;
50333;Laerm;36239;48.132;-1.210;2023-01-16T08:01:07;74.06;43.34;97.83;;
50333;Laerm;36239;48.132;-1.210;2023-01-16T08:03:33;66.92;43.58;91.97;;
50333;Laerm;36239;48.132;-1.210;2023-01-16T08:05:59;72.41;44.03;94.00;;
50333;Laerm;36239;48.132;-1.210;2023-01-16T08:08:25;67.21;42.59;94.20;;
50333;Laerm;36239;48.132;-1.210;2023-01-16T08:10:55;72.29;43.04;98.05;;
50333;Laerm;36239;48.132;-1.210;2023-01-16T08:13:21;75.61;43.58;104.98;;
50333;Laerm;36239;48.132;-1.210;2023-01-16T08:15:47;60.82;42.22;88.07;;
50333;Laerm;36239;48.132;-1.210;2023-01-16T08:18:13;64.75;42.09;90.31;;
50333;Laerm;36239;48.132;-1.210;2023-01-16T08:20:40;71.53;41.89;100.85;;
50333;Laerm;36239;48.132;-1.210;2023-01-16T08:23:07;62.74;42.76;87.71;;
50333;Laerm;36239;48.132;-1.210;2023-01-16T08:25:33;66.53;42.53;95.54;;
50333;Laerm;36239;48.132;-1.210;2023-01-16T08:27:59;65.99;40.98;94.98;;
50333;Laerm;36239;48.132;-1.210;2023-01-16T08:30:25;65.01;42.29;94.43;;
50333;Laerm;36239;48.132;-1.210;2023-01-16T08:32:56;62.25;41.06;91.44;;
50333;Laerm;36239;48.132;-1.210;2023-01-16T08:35:22;61.07;42.47;86.58;;
50333;Laerm;36239;48.132;-1.210;2023-01-16T08:37:48;65.00;42.22;92.81;;
50333;Laerm;36239;48.132;-1.210;2023-01-16T08:40:15;66.30;42.47;95.26;;
50333;Laerm;36239;48.132;-1.210;2023-01-16T08:42:41;60.27;42.59;87.24;;
50333;Laerm;36239;48.132;-1.210;2023-01-16T08:45:26;56.45;41.06;83.67;;
50333;Laerm;36239;48.132;-1.210;2023-01-16T08:48:10;52.39;40.43;81.50;;
50333;Laerm;36239;48.132;-1.210;2023-01-16T08:50:55;54.12;40.43;80.75;;
50333;Laerm;36239;48.132;-1.210;2023-01-16T08:53:40;54.07;41.06;81.64;;
50333;Laerm;36239;48.132;-1.210;2023-01-16T08:56:07;47.08;41.89;70.54;;
50333;Laerm;36239;48.132;-1.210;2023-01-16T08:58:33;50.81;40.80;81.74;;
50333;Laerm;36239;48.132;-1.210;2023-01-16T09:00:59;56.24;40.80;84.09;;
50333;Laerm;36239;48.132;-1.210;2023-01-16T09:03:25;44.76;41.30;58.62;;
50333;Laerm;36239;48.132;-1.210;2023-01-16T09:05:51;57.07;41.14;85.61;;
50333;Laerm;36239;48.132;-1.210;2023-01-16T09:08:17;60.85;41.82;87.77;;
50333;Laerm;36239;48.132;-1.210;2023-01-16T09:10:43;64.59;42.29;89.75;;
50333;Laerm;36239;48.132;-1.210;2023-01-16T09:13:29;66.30;43.34;88.22;;
50333;Laerm;36239;48.132;-1.210;2023-01-16T09:16:14;71.06;42.65;97.27;;
50333;Laerm;36239;48.132;-1.210;2023-01-16T09:18:40;66.96;44.69;92.01;;
50333;Laerm;36239;48.132;-1.210;2023-01-16T09:21:06;71.26;45.11;96.63;;
50333;Laerm;36239;48.132;-1.210;2023-01-16T09:23:32;68.51;45.27;97.00;;
50333;Laerm;36239;48.132;-1.210;2023-01-16T09:25:58;68.52;43.34;97.63;;
50333;Laerm;36239;48.132;-1.210;2023-01-16T09:28:24;58.71;43.72;87.79;;
50333;Laerm;36239;48.132;-1.210;2023-01-16T09:30:50;66.30;44.39;96.37;;
50333;Laerm;36239;48.132;-1.210;2023-01-16T09:33:16;72.02;44.23;100.78;;
50333;Laerm;36239;48.132;-1.210;2023-01-16T09:35:42;57.60;43.94;88.95;;
50333;Laerm;36239;48.132;-1.210;2023-01-16T09:38:08;58.17;43.58;85.31;;
50333;Laerm;36239;48.132;-1.210;2023-01-16T09:40:34;56.92;45.30;77.09;;
50333;Laerm;36239;48.132;-1.210;2023-01-16T09:45:52;57.54;43.63;85.55;;
50333;Laerm;36239;48.132;-1.210;2023-01-16T09:48:23;53.90;43.04;77.38;;
50333;Laerm;36239;48.132;-1.210;2023-01-16T09:50:52;57.15;43.63;82.90;;
50333;Laerm;36239;48.132;-1.210;2023-01-16T09:53:38;58.80;42.53;83.89;;
50333;Laerm;36239;48.132;-1.210;2023-01-16T09:56:24;53.81;41.61;79.32;;
50333;Laerm;36239;48.132;-1.210;2023-01-16T10:01:41;54.05;41.89;76.51;;
50333;Laerm;36239;48.132;-1.210;2023-01-16T10:04:18;62.14;40.71;92.37;;
50333;Laerm;36239;48.132;-1.210;2023-01-16T10:09:44;57.79;42.69;85.58;;
50333;Laerm;36239;48.132;-1.210;2023-01-16T10:12:13;67.01;42.76;97.12;;
50333;Laerm;36239;48.132;-1.210;2023-01-16T10:19:55;64.33;43.34;90.69;;
50333;Laerm;36239;48.132;-1.210;2023-01-16T10:22:27;73.60;43.63;98.99;;
50333;Laerm;36239;48.132;-1.210;2023-01-16T10:27:29;66.93;43.34;92.16;;
50333;Laerm;36239;48.132;-1.210;2023-01-16T10:30:01;65.10;42.65;94.20;;
50333;Laerm;36239;48.132;-1.210;2023-01-16T10:32:46;68.77;41.68;99.67;;
50333;Laerm;36239;48.132;-1.210;2023-01-16T10:35:15;63.45;41.75;89.57;;
50333;Laerm;36239;48.132;-1.210;2023-01-16T10:37:43;68.31;41.75;98.18;;
50333;Laerm;36239;48.132;-1.210;2023-01-16T10:40:14;61.52;42.03;93.79;;
50333;Laerm;36239;48.132;-1.210;2023-01-16T10:42:44;75.19;42.22;102.92;;
50333;Laerm;36239;48.132;-1.210;2023-01-16T10:45:33;62.58;41.82;88.54;;
50333;Laerm;36239;48.132;-1.210;2023-01-16T10:48:18;65.22;41.96;95.83;;
50333;Laerm;36239;48.132;-1.210;2023-01-16T10:51:03;64.37;41.38;90.76;;
50333;Laerm;36239;48.132;-1.210;2023-01-16T10:53:31;63.64;41.30;87.64;;
50333;Laerm;36239;48.132;-1.210;2023-01-16T10:55:57;60.57;40.98;83.17;;
50333;Laerm;36239;48.132;-1.210;2023-01-16T10:58:25;62.03;41.68;89.38;;
50333;Laerm;36239;48.132;-1.210;2023-01-16T11:00:59;69.91;43.04;95.19;;
50333;Laerm;36239;48.132;-1.210;2023-01-16T11:08:36;64.89;45.51;91.95;;
50333;Laerm;36239;48.132;-1.210;2023-01-16T11:11:02;72.16;44.39;100.51;;
50333;Laerm;36239;48.132;-1.210;2023-01-16T11:13:28;63.59;44.11;88.38;;
50333;Laerm;36239;48.132;-1.210;2023-01-16T11:16:19;54.79;44.23;83.14;;
50333;Laerm;36239;48.132;-1.210;2023-01-16T11:19:18;51.96;42.53;73.71;;
50333;Laerm;36239;48.132;-1.210;2023-01-16T11:21:48;50.69;41.75;68.15;;
50333;Laerm;36239;48.132;-1.210;2023-01-16T11:24:16;52.05;41.75;76.08;;
50333;Laerm;36239;48.132;-1.210;2023-01-16T11:26:45;48.23;41.30;61.02;;
50333;Laerm;36239;48.132;-1.210;2023-01-16T11:29:16;47.78;41.68;65.50;;
50333;Laerm;36239;48.132;-1.210;2023-01-16T11:32:16;49.66;41.46;70.32;;
50333;Laerm;36239;48.132;-1.210;2023-01-16T11:34:36;60.90;44.54;85.25;;
50333;Laerm;36239;48.132;-1.210;2023-01-16T11:37:03;56.45;43.81;81.78;;
50333;Laerm;36239;48.132;-1.210;2023-01-16T11:39:31;65.37;43.68;95.18;;
50333;Laerm;36239;48.132;-1.210;2023-01-16T11:41:59;57.57;46.56;81.53;;
50333;Laerm;36239;48.132;-1.210;2023-01-16T11:44:48;51.65;43.90;75.75;;
50333;Laerm;36239;48.132;-1.210;2023-01-16T11:47:39;51.53;42.59;72.80;;
50333;Laerm;36239;48.132;-1.210;2023-01-16T11:50:18;53.55;42.47;68.77;;
50333;Laerm;36239;48.132;-1.210;2023-01-16T11:52:45;51.93;42.35;65.26;;
50333;Laerm;36239;48.132;-1.210;2023-01-16T11:55:13;51.91;42.65;66.42;;
50333;Laerm;36239;48.132;-1.210;2023-01-16T12:05:28;51.59;41.68;70.19;;
50333;Laerm;36239;48.132;-1.210;2023-01-16T12:08:25;53.84;41.53;78.64;;
50333;Laerm;36239;48.132;-1.210;2023-01-16T12:13:35;60.75;43.09;89.53;;
50333;Laerm;36239;48.132;-1.210;2023-01-16T12:16:48;59.76;43.14;86.78;;
50333;Laerm;36239;48.132;-1.210;2023-01-16T12:19:33;54.50;43.24;78.00;;
50333;Laerm;36239;48.132;-1.210;2023-01-16T12:27:30;72.32;52.54;96.85;;
50333;Laerm;36239;48.132;-1.210;2023-01-16T12:41:10;53.15;43.24;81.99;;
50333;Laerm;36239;48.132;-1.210;2023-01-16T12:53:32;59.69;42.29;86.77;;
50333;Laerm;36239;48.132;-1.210;2023-01-16T12:58:36;54.98;42.06;80.16;;
50333;Laerm;36239;48.132;-1.210;2023-01-16T13:03:41;73.51;42.82;98.15;;
50333;Laerm;36239;48.132;-1.210;2023-01-16T13:06:10;74.30;42.53;100.45;;
50333;Laerm;36239;48.132;-1.210;2023-01-16T13:08:45;65.22;42.65;91.59;;
50333;Laerm;36239;48.132;-1.210;2023-01-16T13:11:23;58.78;42.88;84.67;;
50333;Laerm;36239;48.132;-1.210;2023-01-16T13:14:09;50.90;41.96;75.95;;
50333;Laerm;36239;48.132;-1.210;2023-01-16T13:16:37;57.80;41.82;82.75;;
50333;Laerm;36239;48.132;-1.210;2023-01-16T13:21:36;64.63;42.41;88.19;;
50333;Laerm;36239;48.132;-1.210;2023-01-16T13:24:08;64.72;42.65;89.32;;
50333;Laerm;36239;48.132;-1.210;2023-01-16T13:26:36;63.61;42.09;88.82;;
50333;Laerm;36239;48.132;-1.210;2023-01-16T13:34:07;49.76;41.53;73.10;;
50333;Laerm;36239;48.132;-1.210;2023-01-16T13:41:52;66.84;41.82;90.02;;
50333;Laerm;36239;48.132;-1.210;2023-01-16T13:44:23;62.42;42.95;90.10;;
50333;Laerm;36239;48.132;-1.210;2023-01-16T13:47:10;55.89;43.33;82.38;;
50333;Laerm;36239;48.132;-1.210;2023-01-16T13:49:37;59.77;42.41;85.72;;
50333;Laerm;36239;48.132;-1.210;2023-01-16T13:52:11;57.76;42.82;83.03;;
50333;Laerm;36239;48.132;-1.210;2023-01-16T13:54:42;58.97;41.30;82.67;;
50333;Laerm;36239;48.132;-1.210;2023-01-16T13:57:12;55.28;41.82;77.05;;
50333;Laerm;36239;48.132;-1.210;2023-01-16T14:05:41;62.45;42.22;82.54;;
50333;Laerm;36239;48.132;-1.210;2023-01-16T14:10:44;61.48;45.11;84.91;;
50333;Laerm;36239;48.132;-1.210;2023-01-16T14:13:14;59.89;45.39;82.94;;
50333;Laerm;36239;48.132;-1.210;2023-01-16T14:15:54;57.91;43.72;83.65;;
50333;Laerm;36239;48.132;-1.210;2023-01-16T14:18:56;56.28;44.15;76.68;;
50333;Laerm;36239;48.132;-1.210;2023-01-16T14:21:26;62.27;43.19;75.32;;
50333;Laerm;36239;48.132;-1.210;2023-01-16T14:23:57;59.35;43.24;85.32;;
50333;Laerm;36239;48.132;-1.210;2023-01-16T14:28:56;56.16;44.62;73.08;;
50333;Laerm;36239;48.132;-1.210;2023-01-16T14:31:26;59.00;45.45;74.60;;
50333;Laerm;36239;48.132;-1.210;2023-01-16T14:33:53;67.79;43.58;86.04;;
50333;Laerm;36239;48.132;-1.210;2023-01-16T14:36:21;70.08;43.68;94.58;;
50333;Laerm;36239;48.132;-1.210;2023-01-16T14:38:48;64.12;44.19;90.83;;
50333;Laerm;36239;48.132;-1.210;2023-01-16T14:41:16;61.26;44.03;85.23;;
50333;Laerm;36239;48.132;-1.210;2023-01-16T14:46:53;58.66;43.29;83.09;;
50333;Laerm;36239;48.132;-1.210;2023-01-16T14:55:49;55.01;42.09;78.32;;
50333;Laerm;36239;48.132;-1.210;2023-01-16T14:58:24;59.60;42.93;87.22;;
50333;Laerm;36239;48.132;-1.210;2023-01-16T15:00:52;50.71;41.14;76.25;;
50333;Laerm;36239;48.132;-1.210;2023-01-16T15:03:22;67.84;41.68;93.65;;
50333;Laerm;36239;48.132;-1.210;2023-01-16T15:05:52;57.11;41.22;81.02;;
50333;Laerm;36239;48.132;-1.210;2023-01-16T15:08:22;59.00;41.82;84.71;;
50333;Laerm;36239;48.132;-1.210;2023-01-16T15:10:50;56.65;43.19;78.98;;
50333;Laerm;36239;48.132;-1.210;2023-01-16T15:13:20;56.26;41.55;82.56;;
50333;Laerm;36239;48.132;-1.210;2023-01-16T15:15:48;54.57;41.75;79.00;;
50333;Laerm;36239;48.132;-1.210;2023-01-16T15:18:17;54.97;41.33;79.45;;
50333;Laerm;36239;48.132;-1.210;2023-01-16T15:21:02;54.99;41.46;81.50;;
50333;Laerm;36239;48.132;-1.210;2023-01-16T15:23:47;57.79;41.89;84.38;;
50333;Laerm;36239;48.132;-1.210;2023-01-16T15:28:50;58.35;42.16;86.90;;
50333;Laerm;36239;48.132;-1.210;2023-01-16T15:31:29;60.25;41.68;90.21;;
50333;Laerm;36239;48.132;-1.210;2023-01-16T15:34:13;66.35;42.29;87.22;;
50333;Laerm;36239;48.132;-1.210;2023-01-16T15:36:44;63.57;42.03;84.64;;
50333;Laerm;36239;48.132;-1.210;2023-01-16T15:44:48;55.13;44.23;77.48;;
50333;Laerm;36239;48.132;-1.210;2023-01-16T15:50:24;53.65;43.90;76.26;;
50333;Laerm;36239;48.132;-1.210;2023-01-16T15:52:52;59.28;43.63;83.45;;
50333;Laerm;36239;48.132;-1.210;2023-01-16T15:55:25;56.12;42.59;84.35;;
50333;Laerm;36239;48.132;-1.210;2023-01-16T15:57:53;61.13;42.65;92.62;;
50333;Laerm;36239;48.132;-1.210;2023-01-16T16:00:24;50.28;41.75;75.24;;
50333;Laerm;36239;48.132;-1.210;2023-01-16T16:02:50;58.69;41.38;84.35;;
50333;Laerm;36239;48.132;-1.210;2023-01-16T16:05:21;55.32;42.35;83.43;;
50333;Laerm;36239;48.132;-1.210;2023-01-16T16:07:49;50.71;42.65;73.70;;
50333;Laerm;36239;48.132;-1.210;2023-01-16T16:10:15;51.49;41.68;76.45;;
50333;Laerm;36239;48.132;-1.210;2023-01-16T16:13:03;52.06;42.16;78.59;;
50333;Laerm;36239;48.132;-1.210;2023-01-16T16:15:30;49.25;42.16;68.92;;